Time;durP1;ratioP1;P1;durP2;ratioP2;P2;SDS_P1;SDS_P2;PMS_P1;PMS_P2;Temp;Humidity;BMP_temperature;BMP_pressure;BME280_temperature;BME280_humidity;BME280_pressure;Samples;Min_cycle;Max_cycle;Signal;HPM_P1;HPM_P2
2021/03/31 00:00:37;;;;;;;26.20;21.10;;;11.70;98.20;;;;;;5042461;28;20211;-75
2021/03/31 00:03:07;;;;;;;26.48;23.58;;;11.70;98.20;;;;;;5054831;28;20220;-75
2021/03/31 00:05:34;;;;;;;29.80;24.55;;;11.70;98.40;;;;;;5060886;28;20291;-73
2021/03/31 00:08:01;;;;;;;34.03;22.95;;;11.70;98.50;;;;;;5054184;28;20222;-73
2021/03/31 00:10:31;;;;;;;30.88;24.80;;;11.70;98.60;;;;;;5053037;28;20212;-75
2021/03/31 00:12:59;;;;;;;32.38;24.98;;;11.70;98.60;;;;;;5051419;28;20207;-75
2021/03/31 00:15:25;;;;;;;29.05;24.90;;;11.60;98.90;;;;;;5045451;28;20226;-75
2021/03/31 00:17:53;;;;;;;32.95;24.45;;;11.50;98.90;;;;;;5044206;28;20204;-74
2021/03/31 00:20:21;;;;;;;38.30;26.77;;;11.50;98.90;;;;;;5050517;28;20193;-75
2021/03/31 00:22:47;;;;;;;33.65;24.63;;;11.40;99.30;;;;;;5043344;28;20207;-74
2021/03/31 00:25:15;;;;;;;32.35;26.33;;;11.30;99.70;;;;;;5046076;28;20219;-74
2021/03/31 00:27:42;;;;;;;34.45;25.35;;;11.20;99.90;;;;;;5052641;28;20203;-74
2021/03/31 00:30:13;;;;;;;34.88;23.05;;;11.10;99.90;;;;;;5038369;28;20198;-74
2021/03/31 00:32:40;;;;;;;23.90;21.38;;;11.10;99.90;;;;;;5046699;28;20217;-75
2021/03/31 00:35:08;;;;;;;34.53;23.90;;;11.20;99.90;;;;;;5038156;28;20669;-74
2021/03/31 00:37:35;;;;;;;32.85;25.65;;;11.20;99.90;;;;;;5042611;28;20207;-74
2021/03/31 00:40:07;;;;;;;32.15;24.23;;;11.20;99.90;;;;;;5054557;28;20686;-76
2021/03/31 00:42:34;;;;;;;31.90;24.23;;;11.20;99.90;;;;;;5052444;28;20296;-74
2021/03/31 00:45:02;;;;;;;33.75;25.27;;;11.10;99.90;;;;;;5060679;28;20263;-74
2021/03/31 00:47:30;;;;;;;30.35;22.63;;;11.10;99.90;;;;;;5041526;28;20205;-73
2021/03/31 00:49:56;;;;;;;31.13;25.70;;;11.10;99.90;;;;;;5053061;28;20208;-73
2021/03/31 00:52:23;;;;;;;30.75;25.40;;;11.00;99.90;;;;;;5051950;28;20214;-74
2021/03/31 00:54:50;;;;;;;35.33;27.27;;;10.90;99.90;;;;;;5043222;28;20231;-72
2021/03/31 00:57:18;;;;;;;34.70;24.58;;;10.80;99.90;;;;;;5053000;28;20205;-74
2021/03/31 01:00:09;;;;;;;31.20;26.10;;;10.70;99.90;;;;;;5048259;28;20237;-78
2021/03/31 01:02:37;;;;;;;32.00;24.73;;;10.60;99.90;;;;;;5052749;28;20212;-73
2021/03/31 01:05:07;;;;;;;31.30;24.30;;;10.60;99.90;;;;;;5040615;28;20277;-74
2021/03/31 01:07:34;;;;;;;35.80;25.80;;;10.60;99.90;;;;;;5041191;28;20569;-74
2021/03/31 01:10:01;;;;;;;32.00;24.67;;;10.50;99.90;;;;;;5051255;28;20222;-72
2021/03/31 01:12:33;;;;;;;29.20;23.83;;;10.40;99.90;;;;;;5050191;28;20204;-74
2021/03/31 01:15:07;;;;;;;35.83;25.55;;;10.30;99.90;;;;;;5051031;28;20200;-75
2021/03/31 01:17:40;;;;;;;36.05;24.83;;;10.30;99.90;;;;;;5044580;28;20205;-74
2021/03/31 01:20:31;;;;;;;50.45;23.58;;;10.20;99.90;;;;;;5045091;28;20213;-75
2021/03/31 01:23:30;;;;;;;33.85;22.02;;;10.10;99.90;;;;;;5053749;28;20212;-74
2021/03/31 01:26:02;;;;;;;32.88;21.20;;;10.00;99.90;;;;;;5040615;28;20312;-76
2021/03/31 01:28:46;;;;;;;33.65;25.15;;;10.00;99.90;;;;;;5040983;28;20208;-75
2021/03/31 01:31:29;;;;;;;30.30;23.15;;;10.00;99.90;;;;;;5054721;28;20207;-74
2021/03/31 01:34:21;;;;;;;32.42;23.98;;;9.90;99.90;;;;;;5062822;28;20212;-75
2021/03/31 01:36:50;;;;;;;28.20;23.10;;;9.90;99.90;;;;;;5043716;28;20226;-74
2021/03/31 01:39:19;;;;;;;29.20;21.67;;;9.90;99.90;;;;;;5040595;28;20319;-75
2021/03/31 01:41:48;;;;;;;29.85;22.85;;;9.90;99.90;;;;;;5045213;28;20494;-75
2021/03/31 01:44:17;;;;;;;29.67;22.17;;;10.00;99.90;;;;;;5045160;28;20203;-75
2021/03/31 01:46:53;;;;;;;28.05;22.45;;;10.00;99.90;;;;;;5047993;28;20285;-74
2021/03/31 01:49:22;;;;;;;29.50;21.30;;;9.90;99.90;;;;;;5049054;28;20294;-73
2021/03/31 01:51:55;;;;;;;28.85;22.45;;;9.90;99.90;;;;;;5053006;28;20226;-74
2021/03/31 01:54:22;;;;;;;24.73;20.85;;;9.90;99.90;;;;;;5042616;28;20196;-74
2021/03/31 01:56:49;;;;;;;26.23;20.38;;;10.00;99.90;;;;;;5044141;28;20223;-75
2021/03/31 01:59:19;;;;;;;27.27;21.40;;;10.00;99.90;;;;;;5040759;28;20200;-76
2021/03/31 02:01:50;;;;;;;28.00;21.50;;;10.10;99.90;;;;;;5046734;28;20218;-73
2021/03/31 02:04:17;;;;;;;30.00;21.17;;;10.10;99.90;;;;;;5043850;28;20230;-73
2021/03/31 02:06:46;;;;;;;30.77;21.40;;;10.00;99.90;;;;;;5052053;28;20227;-74
2021/03/31 02:09:14;;;;;;;28.90;22.58;;;10.10;99.90;;;;;;5051988;28;20207;-74
2021/03/31 02:11:44;;;;;;;25.20;21.85;;;10.00;99.90;;;;;;5054787;28;20218;-75
2021/03/31 02:14:13;;;;;;;31.80;21.40;;;10.00;99.90;;;;;;5048315;28;20213;-76
2021/03/31 02:16:44;;;;;;;29.10;21.27;;;10.00;99.90;;;;;;5044479;28;20237;-75
2021/03/31 02:19:14;;;;;;;30.48;20.98;;;9.90;99.90;;;;;;5035870;28;20212;-74
2021/03/31 02:21:43;;;;;;;26.75;19.75;;;9.90;99.90;;;;;;5043405;28;20211;-75
2021/03/31 02:24:14;;;;;;;26.08;20.85;;;9.90;99.90;;;;;;5035355;28;20204;-75
2021/03/31 02:26:41;;;;;;;27.33;20.45;;;9.90;99.90;;;;;;5039902;28;20233;-74
2021/03/31 02:29:08;;;;;;;27.92;20.55;;;9.80;99.90;;;;;;5036266;28;20700;-74
2021/03/31 02:31:37;;;;;;;26.98;20.52;;;9.80;99.90;;;;;;5044303;28;20211;-75
2021/03/31 02:34:05;;;;;;;26.40;19.52;;;9.80;99.90;;;;;;5051122;28;20215;-73
2021/03/31 02:36:34;;;;;;;24.35;20.60;;;9.80;99.90;;;;;;5037333;28;20518;-74
2021/03/31 02:39:02;;;;;;;29.48;23.23;;;9.90;99.90;;;;;;5042742;28;20199;-76
2021/03/31 02:41:30;;;;;;;29.65;19.17;;;9.90;99.90;;;;;;5041055;28;20609;-76
2021/03/31 02:43:59;;;;;;;32.08;20.15;;;9.90;99.90;;;;;;5052416;28;20214;-75
2021/03/31 02:46:28;;;;;;;24.02;18.65;;;9.90;99.90;;;;;;5052351;28;20641;-75
2021/03/31 02:48:55;;;;;;;26.98;19.13;;;9.80;99.90;;;;;;5050552;28;20245;-74
2021/03/31 02:51:22;;;;;;;28.98;20.48;;;9.80;99.90;;;;;;5052545;28;20265;-75
2021/03/31 02:53:50;;;;;;;23.85;19.90;;;9.80;99.90;;;;;;5039486;28;20212;-73
2021/03/31 02:56:17;;;;;;;25.17;20.35;;;9.70;99.90;;;;;;5047817;28;20215;-75
2021/03/31 02:58:47;;;;;;;27.40;20.10;;;9.60;99.90;;;;;;5053305;28;20211;-75
2021/03/31 03:01:14;;;;;;;24.00;19.85;;;9.60;99.90;;;;;;5041716;28;20208;-74
2021/03/31 03:03:42;;;;;;;24.95;19.35;;;9.50;99.90;;;;;;5042769;28;20251;-74
2021/03/31 03:06:09;;;;;;;29.60;19.98;;;9.40;99.90;;;;;;5044728;28;20223;-74
2021/03/31 03:08:36;;;;;;;26.10;20.67;;;9.40;99.90;;;;;;5039793;28;20211;-74
2021/03/31 03:11:04;;;;;;;30.52;19.85;;;9.40;99.90;;;;;;5045588;28;20220;-74
2021/03/31 03:13:32;;;;;;;26.23;20.88;;;9.40;99.90;;;;;;5040279;28;20204;-74
2021/03/31 03:16:00;;;;;;;30.60;20.25;;;9.40;99.90;;;;;;5036652;28;20230;-74
2021/03/31 03:18:36;;;;;;;34.55;23.00;;;9.40;99.90;;;;;;5042567;28;20211;-73
2021/03/31 03:21:04;;;;;;;30.63;22.38;;;9.30;99.90;;;;;;5041892;28;20713;-72
2021/03/31 03:23:31;;;;;;;32.00;21.15;;;9.30;99.90;;;;;;5057406;28;20204;-74
2021/03/31 03:26:00;;;;;;;36.08;20.95;;;9.20;99.90;;;;;;5048035;28;20235;-73
2021/03/31 03:28:29;;;;;;;31.00;21.77;;;9.20;99.90;;;;;;5035593;28;20473;-74
2021/03/31 03:30:58;;;;;;;26.95;20.50;;;9.10;99.90;;;;;;5044970;28;20264;-73
2021/03/31 03:33:27;;;;;;;25.35;19.40;;;9.10;99.90;;;;;;5043108;28;20206;-73
2021/03/31 03:35:54;;;;;;;29.60;23.45;;;9.10;99.90;;;;;;5043802;28;20281;-74
2021/03/31 03:38:22;;;;;;;23.80;19.13;;;9.10;99.90;;;;;;5045519;28;20661;-73
2021/03/31 03:40:49;;;;;;;28.63;21.05;;;9.10;99.90;;;;;;5049027;28;20211;-74
2021/03/31 03:43:17;;;;;;;25.02;20.50;;;9.20;99.90;;;;;;5051115;28;20209;-73
2021/03/31 03:45:45;;;;;;;24.30;19.95;;;9.20;99.90;;;;;;5046018;28;20698;-73
2021/03/31 03:48:11;;;;;;;26.42;19.02;;;9.20;99.90;;;;;;5046572;28;20212;-73
2021/03/31 03:50:45;;;;;;;26.52;20.92;;;9.30;99.90;;;;;;5059705;28;20218;-72
2021/03/31 03:53:12;;;;;;;28.60;20.20;;;9.30;99.90;;;;;;5041542;28;20207;-73
2021/03/31 03:55:39;;;;;;;26.20;18.88;;;9.20;99.90;;;;;;5042294;28;20228;-74
2021/03/31 03:58:09;;;;;;;27.95;18.50;;;9.20;99.90;;;;;;5043460;28;20204;-73
2021/03/31 04:00:36;;;;;;;34.90;19.60;;;9.20;99.90;;;;;;5048872;28;20573;-73
2021/03/31 04:03:04;;;;;;;26.08;19.30;;;9.20;99.90;;;;;;5053574;28;20653;-73
2021/03/31 04:05:30;;;;;;;27.63;21.40;;;9.20;99.90;;;;;;5046104;28;20228;-73
2021/03/31 04:07:58;;;;;;;26.33;18.25;;;9.20;99.90;;;;;;5049504;28;20219;-74
2021/03/31 04:10:28;;;;;;;30.10;20.05;;;9.20;99.90;;;;;;5046004;28;20215;-72
2021/03/31 04:12:57;;;;;;;25.58;20.05;;;9.20;99.90;;;;;;5051541;28;20210;-73
2021/03/31 04:15:24;;;;;;;24.17;19.15;;;9.20;99.90;;;;;;5043411;28;20322;-73
2021/03/31 04:17:51;;;;;;;23.30;18.35;;;9.30;99.90;;;;;;5038232;28;20204;-74
2021/03/31 04:20:21;;;;;;;27.98;19.70;;;9.30;99.90;;;;;;5053986;28;20208;-72
2021/03/31 04:22:48;;;;;;;25.98;19.25;;;9.30;99.90;;;;;;5042188;28;20310;-74
2021/03/31 04:25:17;;;;;;;26.63;18.85;;;9.30;99.90;;;;;;5047260;28;20232;-74
2021/03/31 04:27:46;;;;;;;27.30;19.50;;;9.40;99.90;;;;;;5048637;28;20217;-74
2021/03/31 04:33:15;;;;;;;29.55;19.27;;;9.50;99.90;;;;;;5051087;28;20291;-75
2021/03/31 04:35:42;;;;;;;23.58;19.42;;;9.40;99.90;;;;;;5042667;28;20224;-73
2021/03/31 04:38:10;;;;;;;24.60;18.77;;;9.40;99.90;;;;;;5048627;28;20661;-74
2021/03/31 04:40:50;;;;;;;24.75;19.45;;;9.30;99.90;;;;;;5044124;28;20212;-74
2021/03/31 04:43:16;;;;;;;25.00;18.55;;;9.30;99.90;;;;;;5051084;28;20207;-73
2021/03/31 04:45:43;;;;;;;28.73;20.65;;;9.30;99.90;;;;;;5048986;28;20345;-74
2021/03/31 04:48:10;;;;;;;28.90;20.25;;;9.30;99.90;;;;;;5039149;28;20203;-73
2021/03/31 04:50:36;;;;;;;36.00;19.15;;;9.30;99.90;;;;;;5052912;28;20195;-75
2021/03/31 04:53:04;;;;;;;23.50;16.35;;;9.30;99.90;;;;;;5044630;28;20207;-74
2021/03/31 04:55:31;;;;;;;25.60;18.55;;;9.20;99.90;;;;;;5041854;28;20216;-74
2021/03/31 04:57:59;;;;;;;26.52;20.27;;;9.20;99.90;;;;;;5052223;28;20615;-74
2021/03/31 05:00:26;;;;;;;25.77;18.30;;;9.20;99.90;;;;;;5049731;28;20245;-74
2021/03/31 05:02:53;;;;;;;24.88;19.02;;;9.30;99.90;;;;;;5056945;28;20206;-75
2021/03/31 05:05:20;;;;;;;24.20;18.27;;;9.30;99.90;;;;;;5049287;28;20235;-73
2021/03/31 05:07:47;;;;;;;30.33;20.27;;;9.30;99.90;;;;;;5048378;28;20279;-73
2021/03/31 05:10:14;;;;;;;26.10;19.98;;;9.30;99.90;;;;;;5053247;28;20658;-73
2021/03/31 05:12:41;;;;;;;24.10;19.17;;;9.30;99.90;;;;;;5047922;28;20219;-73
2021/03/31 05:15:09;;;;;;;31.30;18.33;;;9.30;99.90;;;;;;5045380;28;20198;-73
2021/03/31 05:17:36;;;;;;;28.33;21.30;;;9.40;99.90;;;;;;5047213;28;20462;-73
2021/03/31 05:20:03;;;;;;;27.02;20.88;;;9.60;99.90;;;;;;5043162;28;20195;-74
2021/03/31 05:22:31;;;;;;;26.60;19.95;;;9.70;99.90;;;;;;5048044;28;20561;-72
2021/03/31 05:24:57;;;;;;;30.10;19.33;;;9.70;99.90;;;;;;5051384;28;20252;-73
2021/03/31 05:27:25;;;;;;;33.30;21.17;;;9.60;99.90;;;;;;5049665;28;20207;-72
2021/03/31 05:29:52;;;;;;;37.88;21.23;;;9.60;99.90;;;;;;5046705;28;20208;-73
2021/03/31 05:32:21;;;;;;;23.55;19.10;;;9.60;99.90;;;;;;5049586;28;20200;-72
2021/03/31 05:34:47;;;;;;;31.35;20.70;;;9.60;99.90;;;;;;5046589;28;20208;-73
2021/03/31 05:37:14;;;;;;;32.60;20.95;;;9.60;99.90;;;;;;5037449;28;20261;-73
2021/03/31 05:39:41;;;;;;;46.78;25.42;;;9.60;99.90;;;;;;5042408;28;20220;-74
2021/03/31 05:42:09;;;;;;;26.83;18.48;;;9.60;99.90;;;;;;5046457;28;20199;-75
2021/03/31 05:44:36;;;;;;;27.02;19.60;;;9.80;99.90;;;;;;5041696;28;20204;-74
2021/03/31 05:47:08;;;;;;;32.60;20.92;;;9.90;99.90;;;;;;5055166;28;21264;-73
2021/03/31 05:49:36;;;;;;;31.27;19.27;;;10.10;99.90;;;;;;5047298;28;20211;-73
2021/03/31 05:52:04;;;;;;;24.23;19.15;;;10.30;99.90;;;;;;5049617;28;20276;-73
2021/03/31 05:54:31;;;;;;;23.75;19.38;;;10.50;99.90;;;;;;5049649;28;20212;-73
2021/03/31 05:56:58;;;;;;;25.85;18.52;;;10.60;99.90;;;;;;5041033;28;20246;-74
2021/03/31 05:59:25;;;;;;;24.30;19.08;;;10.80;99.90;;;;;;5050821;28;20208;-73
2021/03/31 06:01:52;;;;;;;26.90;19.58;;;11.40;99.90;;;;;;5041192;28;20214;-74
2021/03/31 06:04:19;;;;;;;28.45;19.15;;;11.90;98.60;;;;;;5042709;28;20671;-72
2021/03/31 06:06:47;;;;;;;28.10;17.30;;;12.60;97.70;;;;;;5051693;28;20231;-73
2021/03/31 06:09:14;;;;;;;28.45;17.98;;;13.50;95.80;;;;;;5046997;28;20219;-74
2021/03/31 06:11:49;;;;;;;33.00;21.17;;;14.40;93.00;;;;;;5051492;28;20196;-73
2021/03/31 06:14:30;;;;;;;29.02;18.80;;;15.40;90.40;;;;;;5057617;28;20276;-73
2021/03/31 06:17:09;;;;;;;27.08;20.65;;;16.00;85.80;;;;;;5040839;28;20295;-74
2021/03/31 06:19:38;;;;;;;23.38;18.98;;;16.60;82.40;;;;;;5049485;28;20201;-73
2021/03/31 06:22:14;;;;;;;27.20;19.92;;;17.20;80.80;;;;;;5049922;28;20423;-73
2021/03/31 06:24:46;;;;;;;26.83;19.67;;;17.70;78.70;;;;;;5048942;28;20209;-75
2021/03/31 06:27:13;;;;;;;24.87;20.23;;;17.90;76.10;;;;;;5051430;28;20509;-74
2021/03/31 06:30:03;;;;;;;42.83;19.47;;;18.30;74.70;;;;;;5053901;28;20467;-73
2021/03/31 06:32:35;;;;;;;28.00;19.90;;;18.70;74.00;;;;;;5046441;28;20455;-74
2021/03/31 06:35:02;;;;;;;23.40;20.27;;;19.10;72.30;;;;;;5049326;28;20462;-73
2021/03/31 06:37:35;;;;;;;29.00;20.63;;;18.90;71.10;;;;;;5037338;28;20501;-75
2021/03/31 06:40:02;;;;;;;28.10;19.80;;;19.30;70.50;;;;;;5042657;28;20533;-75
2021/03/31 06:42:38;;;;;;;32.03;19.63;;;19.70;70.10;;;;;;5049423;28;20916;-74
2021/03/31 06:45:09;;;;;;;25.00;18.43;;;20.00;69.80;;;;;;5044957;28;20471;-74
2021/03/31 06:47:37;;;;;;;20.07;17.07;;;20.20;69.40;;;;;;5048500;28;20452;-75
2021/03/31 06:50:08;;;;;;;30.07;19.53;;;20.40;67.60;;;;;;5043323;28;20544;-74
2021/03/31 06:52:52;;;;;;;20.93;18.73;;;20.50;66.60;;;;;;5039204;28;20450;-74
2021/03/31 06:55:19;;;;;;;24.20;18.67;;;21.20;66.50;;;;;;5037086;28;20464;-71
2021/03/31 06:57:52;;;;;;;24.87;17.43;;;21.60;63.90;;;;;;5049527;28;20902;-74
2021/03/31 07:00:25;;;;;;;26.17;18.90;;;21.50;65.50;;;;;;5050672;28;20497;-72
2021/03/31 07:02:54;;;;;;;22.37;17.50;;;21.70;64.70;;;;;;5050764;28;20936;-72
2021/03/31 07:05:21;;;;;;;24.43;18.27;;;21.80;64.30;;;;;;5042189;28;20596;-72
2021/03/31 07:08:00;;;;;;;19.83;17.83;;;21.50;60.80;;;;;;5048800;28;20454;-75
2021/03/31 07:10:28;;;;;;;18.83;16.83;;;21.70;62.70;;;;;;5048387;28;20495;-70
2021/03/31 07:12:55;;;;;;;21.33;17.07;;;21.60;60.50;;;;;;5052003;28;20447;-72
2021/03/31 07:15:26;;;;;;;21.77;17.03;;;21.90;59.60;;;;;;5054981;28;20472;-74
2021/03/31 07:17:56;;;;;;;19.37;15.37;;;22.20;58.90;;;;;;5058830;28;20481;-74
2021/03/31 07:23:01;;;;;;;20.03;16.63;;;22.70;57.70;;;;;;4887925;26;20496;-73
2021/03/31 07:25:30;;;;;;;18.77;16.80;;;22.90;57.10;;;;;;5077593;28;20505;-71
2021/03/31 07:27:58;;;;;;;21.93;15.57;;;23.30;56.60;;;;;;5088497;28;20571;-74
2021/03/31 07:30:28;;;;;;;19.10;16.60;;;23.50;56.30;;;;;;5089498;28;20440;-73
2021/03/31 07:32:58;;;;;;;19.27;17.20;;;23.60;55.50;;;;;;5078502;28;20555;-76
2021/03/31 07:35:29;;;;;;;23.87;18.50;;;23.80;55.60;;;;;;5084388;28;20594;-73
2021/03/31 07:37:59;;;;;;;22.60;17.97;;;24.40;55.50;;;;;;5086610;28;20823;-74
2021/03/31 07:40:27;;;;;;;21.47;16.73;;;24.40;54.30;;;;;;5091749;28;20444;-75
2021/03/31 07:43:00;;;;;;;20.87;17.57;;;24.20;54.30;;;;;;5090721;28;20440;-74
2021/03/31 07:45:31;;;;;;;29.77;19.23;;;23.70;54.50;;;;;;5089194;28;20570;-74
2021/03/31 07:47:59;;;;;;;31.17;18.63;;;23.30;55.40;;;;;;5082597;28;20445;-72
2021/03/31 07:50:27;;;;;;;21.90;16.80;;;23.80;55.30;;;;;;5078465;28;20535;-72
2021/03/31 07:52:58;;;;;;;17.00;15.23;;;24.20;55.20;;;;;;5091693;28;20489;-73
2021/03/31 07:55:47;;;;;;;21.90;16.23;;;24.60;55.00;;;;;;5088620;28;20994;-71
2021/03/31 07:58:28;;;;;;;21.80;18.47;;;25.00;53.60;;;;;;5088264;28;20475;-72
2021/03/31 08:01:10;;;;;;;20.77;17.50;;;25.50;52.70;;;;;;5075565;28;20522;-73
2021/03/31 08:03:41;;;;;;;24.63;17.47;;;25.70;52.30;;;;;;5086825;28;20456;-74
2021/03/31 08:06:17;;;;;;;20.43;18.23;;;25.70;52.10;;;;;;5091330;28;20464;-72
2021/03/31 08:09:04;;;;;;;21.33;16.93;;;25.60;52.40;;;;;;5093205;28;20456;-74
2021/03/31 08:12:01;;;;;;;19.93;17.80;;;25.50;52.20;;;;;;5083813;28;20467;-74
2021/03/31 08:14:42;;;;;;;23.43;17.67;;;25.40;52.00;;;;;;5085373;28;20443;-73
2021/03/31 08:17:12;;;;;;;22.00;17.60;;;25.50;52.20;;;;;;5083467;28;20488;-73
2021/03/31 08:19:41;;;;;;;17.27;15.47;;;25.70;52.70;;;;;;5081271;28;20456;-73
2021/03/31 08:22:34;;;;;;;22.40;17.57;;;25.90;52.10;;;;;;5084400;28;20521;-73
2021/03/31 08:25:12;;;;;;;20.23;16.50;;;26.00;52.00;;;;;;5087573;28;20440;-73
2021/03/31 08:27:55;;;;;;;20.00;17.20;;;26.30;52.00;;;;;;5083889;28;20435;-72
2021/03/31 08:30:23;;;;;;;21.43;16.53;;;26.60;51.70;;;;;;5086364;28;20452;-73
2021/03/31 08:32:50;;;;;;;20.93;16.37;;;26.70;51.00;;;;;;5087367;28;20557;-74
2021/03/31 08:35:17;;;;;;;18.90;16.77;;;27.30;50.60;;;;;;5088874;28;20558;-73
2021/03/31 08:37:45;;;;;;;18.70;16.47;;;27.50;49.90;;;;;;5090213;28;20450;-73
2021/03/31 08:40:13;;;;;;;25.00;17.23;;;27.70;49.50;;;;;;5091339;28;20984;-73
2021/03/31 08:42:48;;;;;;;29.10;16.00;;;27.70;49.00;;;;;;5094632;28;20467;-73
2021/03/31 08:45:25;;;;;;;18.80;16.23;;;27.60;49.90;;;;;;5079364;28;20464;-74
2021/03/31 08:47:51;;;;;;;18.53;16.53;;;27.80;49.40;;;;;;5062792;28;20571;-74
2021/03/31 08:50:26;;;;;;;20.50;16.80;;;27.80;47.40;;;;;;5084164;28;20450;-73
2021/03/31 08:53:04;;;;;;;17.60;15.67;;;27.60;46.50;;;;;;5082321;28;20509;-73
2021/03/31 08:55:36;;;;;;;17.10;15.30;;;27.60;47.50;;;;;;5086509;28;20539;-74
2021/03/31 08:58:08;;;;;;;25.90;17.27;;;27.60;47.70;;;;;;5084350;28;20914;-73
2021/03/31 09:00:52;;;;;;;16.90;15.10;;;27.90;47.60;;;;;;5089040;28;20539;-73
2021/03/31 09:03:19;;;;;;;20.30;16.60;;;28.50;47.80;;;;;;5084546;28;20446;-72
2021/03/31 09:06:00;;;;;;;18.03;15.30;;;28.90;46.30;;;;;;5086228;28;20449;-74
2021/03/31 09:08:28;;;;;;;18.57;16.67;;;28.80;45.50;;;;;;5080164;28;21025;-74
2021/03/31 09:11:03;;;;;;;17.80;15.13;;;28.70;44.80;;;;;;5085042;28;20449;-77
2021/03/31 09:13:32;;;;;;;17.83;15.53;;;28.90;44.20;;;;;;5083182;28;20451;-75
2021/03/31 09:16:02;;;;;;;18.27;15.20;;;28.60;43.50;;;;;;5081870;28;20491;-74
2021/03/31 09:18:30;;;;;;;19.17;16.47;;;29.00;45.20;;;;;;5081656;28;20925;-75
2021/03/31 09:20:58;;;;;;;18.73;16.70;;;29.00;44.80;;;;;;5082218;28;20441;-73
2021/03/31 09:23:26;;;;;;;19.23;17.17;;;29.00;44.30;;;;;;5089594;28;20930;-72
2021/03/31 09:26:00;;;;;;;21.17;16.33;;;28.70;44.70;;;;;;5078225;28;20461;-75
2021/03/31 09:28:27;;;;;;;22.43;17.07;;;28.80;45.20;;;;;;5081732;28;21134;-70
2021/03/31 09:30:57;;;;;;;24.10;17.10;;;28.80;44.50;;;;;;5087421;28;20471;-72
2021/03/31 09:33:30;;;;;;;20.37;16.00;;;28.90;44.30;;;;;;5079760;28;20866;-73
2021/03/31 09:36:11;;;;;;;19.87;16.83;;;29.10;45.10;;;;;;5084189;28;20483;-73
2021/03/31 09:38:38;;;;;;;18.67;16.63;;;29.00;44.20;;;;;;5081142;28;20472;-73
2021/03/31 09:41:07;;;;;;;28.17;18.07;;;28.60;44.70;;;;;;5077809;28;20757;-73
2021/03/31 09:43:48;;;;;;;25.57;17.30;;;28.70;44.60;;;;;;5081491;28;20621;-74
2021/03/31 09:46:16;;;;;;;19.23;16.50;;;28.80;44.90;;;;;;5082696;28;20494;-73
2021/03/31 09:48:43;;;;;;;17.80;15.97;;;28.90;45.10;;;;;;5082515;28;20895;-74
2021/03/31 09:51:13;;;;;;;18.93;16.83;;;28.70;44.50;;;;;;5087384;28;20440;-74
2021/03/31 09:53:41;;;;;;;19.00;16.37;;;28.60;45.60;;;;;;5082492;28;20452;-73
2021/03/31 09:56:11;;;;;;;20.60;17.17;;;28.60;45.60;;;;;;5084381;28;20484;-72
2021/03/31 09:58:40;;;;;;;20.93;17.03;;;28.40;45.40;;;;;;5076804;28;20836;-75
2021/03/31 10:01:10;;;;;;;21.53;16.77;;;28.20;45.20;;;;;;5086610;28;20445;-73
2021/03/31 10:03:37;;;;;;;24.93;17.13;;;28.40;45.30;;;;;;5079833;28;20471;-75
2021/03/31 10:06:24;;;;;;;23.43;16.97;;;28.10;45.40;;;;;;5082814;28;20957;-75
2021/03/31 10:08:51;;;;;;;20.03;15.67;;;28.10;45.60;;;;;;5087716;28;20444;-73
2021/03/31 10:11:33;;;;;;;22.07;16.50;;;28.10;46.10;;;;;;5086487;28;20444;-73
2021/03/31 10:14:00;;;;;;;22.53;17.07;;;28.20;46.50;;;;;;5081015;28;20471;-73
2021/03/31 10:16:36;;;;;;;23.10;18.00;;;28.00;46.00;;;;;;5080759;28;20489;-71
2021/03/31 10:19:08;;;;;;;25.30;17.47;;;28.10;46.00;;;;;;5074149;28;20529;-70
2021/03/31 10:21:37;;;;;;;22.07;17.53;;;28.20;45.90;;;;;;5082188;28;20483;-69
2021/03/31 10:24:05;;;;;;;19.23;16.10;;;28.10;47.00;;;;;;5083535;28;20488;-75
2021/03/31 10:26:34;;;;;;;18.60;16.30;;;28.80;45.90;;;;;;5086422;28;20472;-73
2021/03/31 10:29:03;;;;;;;22.50;16.80;;;29.00;45.40;;;;;;5081345;28;20457;-71
2021/03/31 10:31:31;;;;;;;32.07;19.80;;;28.80;45.60;;;;;;5087274;28;20475;-73
2021/03/31 10:33:58;;;;;;;18.13;15.33;;;28.70;45.70;;;;;;5082308;28;20441;-74
2021/03/31 10:36:40;;;;;;;21.20;18.00;;;28.90;46.00;;;;;;5073998;28;20499;-74
2021/03/31 10:50:49;;;;;;;23.13;18.00;;;26.80;48.20;;;;;;5043027;28;20444;-73
2021/03/31 10:53:16;;;;;;;21.83;17.80;;;26.20;49.00;;;;;;5054987;28;20505;-74
2021/03/31 10:55:45;;;;;;;26.67;18.37;;;25.90;49.80;;;;;;5081027;28;20576;-72
2021/03/31 10:58:12;;;;;;;20.30;17.30;;;25.90;50.20;;;;;;5083903;28;20467;-74
2021/03/31 11:00:39;;;;;;;23.53;18.10;;;25.70;49.50;;;;;;5082931;28;20462;-74
2021/03/31 11:03:06;;;;;;;24.80;16.90;;;25.50;50.20;;;;;;5090974;28;20773;-73
2021/03/31 11:05:33;;;;;;;31.63;17.73;;;25.20;50.30;;;;;;5088677;28;20527;-73
2021/03/31 11:08:00;;;;;;;22.27;17.27;;;25.00;51.40;;;;;;5089295;28;20446;-73
2021/03/31 11:10:28;;;;;;;21.80;18.10;;;25.20;51.60;;;;;;5088412;28;20445;-72
2021/03/31 11:12:54;;;;;;;21.33;18.30;;;25.40;52.00;;;;;;5078601;28;20455;-74
2021/03/31 11:15:23;;;;;;;23.33;17.53;;;25.50;51.60;;;;;;5078309;28;20471;-73
2021/03/31 11:18:01;;;;;;;18.53;16.47;;;25.60;51.90;;;;;;5095378;28;20465;-74
2021/03/31 11:20:39;;;;;;;20.90;16.43;;;25.70;51.40;;;;;;5084222;28;20460;-72
2021/03/31 11:26:09;;;;;;;25.43;17.37;;;25.50;51.60;;;;;;5034615;28;20442;-73
2021/03/31 11:28:37;;;;;;;23.23;17.23;;;25.60;51.10;;;;;;5032948;28;20457;-75
2021/03/31 11:31:04;;;;;;;25.03;18.13;;;25.30;50.90;;;;;;5056804;28;20452;-74
2021/03/31 11:33:31;;;;;;;26.60;18.57;;;25.30;51.70;;;;;;5093074;28;20455;-75
2021/03/31 11:35:57;;;;;;;19.43;17.03;;;25.10;52.30;;;;;;5088994;28;20563;-74
2021/03/31 11:38:26;;;;;;;22.30;17.57;;;25.30;52.10;;;;;;5075854;28;20451;-74
2021/03/31 11:40:52;;;;;;;23.80;17.77;;;25.20;52.40;;;;;;5084139;28;20467;-72
2021/03/31 11:43:20;;;;;;;19.33;15.90;;;25.30;51.40;;;;;;5082599;28;20444;-74
2021/03/31 11:45:47;;;;;;;19.43;16.37;;;25.30;51.60;;;;;;5089730;28;20463;-73
2021/03/31 11:48:15;;;;;;;20.67;17.33;;;25.40;51.30;;;;;;5084416;28;20482;-75
2021/03/31 11:50:42;;;;;;;22.67;17.33;;;25.20;50.80;;;;;;5086847;28;20444;-73
2021/03/31 11:53:09;;;;;;;20.00;15.77;;;25.00;51.70;;;;;;5086115;28;20460;-75
2021/03/31 11:55:36;;;;;;;19.60;16.93;;;25.00;51.30;;;;;;5078751;28;20479;-74
2021/03/31 11:58:03;;;;;;;20.40;17.07;;;24.80;51.00;;;;;;5088725;28;20515;-74
2021/03/31 12:00:31;;;;;;;23.20;18.50;;;25.00;50.90;;;;;;5092846;28;20459;-76
2021/03/31 12:02:58;;;;;;;22.50;17.40;;;24.80;51.50;;;;;;5080005;28;20965;-75
2021/03/31 12:05:24;;;;;;;19.43;17.27;;;24.60;51.40;;;;;;5085902;28;20472;-74
2021/03/31 12:07:51;;;;;;;20.80;16.27;;;24.40;51.60;;;;;;5081991;28;20447;-73
2021/03/31 12:10:18;;;;;;;24.17;16.83;;;24.40;52.10;;;;;;5075333;28;20947;-74
2021/03/31 12:12:44;;;;;;;23.60;16.43;;;24.40;51.30;;;;;;5079910;28;20771;-75
2021/03/31 12:15:12;;;;;;;21.80;17.50;;;24.50;51.10;;;;;;5086738;28;20460;-73
2021/03/31 12:17:41;;;;;;;31.83;18.00;;;24.70;51.40;;;;;;5085687;28;20485;-74
2021/03/31 12:20:10;;;;;;;20.90;16.77;;;24.80;50.90;;;;;;5081388;28;20502;-77
2021/03/31 12:22:38;;;;;;;21.73;16.47;;;25.00;50.00;;;;;;5089596;28;20455;-74
2021/03/31 12:25:06;;;;;;;19.63;16.10;;;25.00;49.00;;;;;;5083401;28;20927;-73
2021/03/31 12:27:34;;;;;;;20.20;16.07;;;25.00;49.00;;;;;;5092318;28;20448;-73
2021/03/31 12:30:02;;;;;;;21.43;16.83;;;24.90;48.60;;;;;;5086131;28;20489;-72
2021/03/31 12:32:28;;;;;;;23.50;16.47;;;25.00;48.80;;;;;;5089667;28;20440;-73
2021/03/31 12:35:03;;;;;;;23.97;17.70;;;25.00;48.90;;;;;;5082977;28;20452;-74
2021/03/31 12:37:30;;;;;;;22.03;17.40;;;24.90;48.90;;;;;;5085413;28;20483;-74
2021/03/31 12:39:57;;;;;;;23.20;16.20;;;24.70;48.90;;;;;;5077229;28;20461;-74
2021/03/31 12:42:25;;;;;;;18.97;15.93;;;24.80;49.80;;;;;;5091968;28;20959;-72
2021/03/31 12:44:53;;;;;;;20.20;16.27;;;24.60;48.90;;;;;;5086100;28;20457;-74
2021/03/31 12:47:21;;;;;;;21.50;15.80;;;24.70;49.00;;;;;;5076111;28;20446;-73
2021/03/31 12:49:49;;;;;;;20.20;16.23;;;24.80;49.20;;;;;;5076966;28;20476;-75
2021/03/31 12:52:23;;;;;;;20.13;16.30;;;24.90;48.70;;;;;;5082893;28;20448;-73
2021/03/31 12:54:53;;;;;;;21.87;17.90;;;24.90;49.20;;;;;;5074518;28;20559;-75
2021/03/31 12:57:21;;;;;;;19.20;17.13;;;25.00;47.90;;;;;;5081067;28;20550;-73
2021/03/31 12:59:47;;;;;;;20.27;17.20;;;25.10;47.60;;;;;;5079504;28;20452;-73
2021/03/31 13:02:14;;;;;;;18.57;16.13;;;25.10;47.80;;;;;;5083042;28;20499;-73
2021/03/31 13:04:41;;;;;;;17.33;14.43;;;25.00;46.80;;;;;;5092550;28;20436;-73